createdAt,value
2022-10-09T00:01:11.148Z,101507.97
2022-10-09T00:03:41.268Z,101510.88
2022-10-09T00:06:12.434Z,101506.53
2022-10-09T00:08:40.953Z,101501.59
2022-10-09T00:11:10.301Z,101502.88
2022-10-09T00:13:38.611Z,101505.53
2022-10-09T00:16:08.254Z,101496.84
2022-10-09T00:18:37.156Z,101502.44
2022-10-09T00:21:05.485Z,101497.50
2022-10-09T00:23:34.484Z,101489.97
2022-10-09T00:26:03.326Z,101490.34
2022-10-09T00:28:36.498Z,101483.63
2022-10-09T00:31:06.479Z,101488.22
2022-10-09T00:33:34.337Z,101489.63
2022-10-09T00:36:04.117Z,101487.81
2022-10-09T00:38:31.859Z,101487.09
2022-10-09T00:41:01.059Z,101481.09
2022-10-09T00:43:41.938Z,101479.13
2022-10-09T00:46:19.962Z,101487.81
2022-10-09T00:48:52.551Z,101487.81
2022-10-09T00:51:20.497Z,101485.56
2022-10-09T00:53:48.236Z,101480.78
2022-10-09T00:56:17.404Z,101483.03
2022-10-09T00:58:45.420Z,101491.44
2022-10-09T01:01:13.202Z,101472.69
2022-10-09T01:03:42.242Z,101482.06
2022-10-09T01:06:18.344Z,101475.16
2022-10-09T01:08:51.717Z,101469.97
2022-10-09T01:11:35.485Z,101481.19
2022-10-09T01:14:11.274Z,101485.88
2022-10-09T01:16:45.776Z,101476.94
2022-10-09T01:19:23.702Z,101481.28
2022-10-09T01:22:03.198Z,101476.94
2022-10-09T01:24:37.846Z,101475.25
2022-10-09T01:27:16.276Z,101466.28
2022-10-09T01:29:47.289Z,101461.94
2022-10-09T01:32:19.762Z,101464.19
2022-10-09T01:34:48.931Z,101462.50
2022-10-09T01:37:18.763Z,101462.50
2022-10-09T01:39:47.737Z,101458.31
2022-10-09T01:42:17.682Z,101459.50
2022-10-09T01:44:45.399Z,101462.84
2022-10-09T01:47:16.743Z,101449.69
2022-10-09T01:49:52.509Z,101454.34
2022-10-09T01:52:34.939Z,101454.00
2022-10-09T01:55:19.402Z,101449.13
2022-10-09T01:57:53.465Z,101438.72
2022-10-09T02:00:22.129Z,101445.19
2022-10-09T02:02:51.442Z,101446.53
2022-10-09T02:05:22.405Z,101449.91
2022-10-09T02:07:50.248Z,101442.91
2022-10-09T02:10:19.463Z,101439.53
2022-10-09T02:12:54.162Z,101435.94
2022-10-09T02:15:24.840Z,101440.88
2022-10-09T02:17:55.467Z,101436.25
2022-10-09T02:20:28.818Z,101433.41
2022-10-09T02:22:59.043Z,101435.19
2022-10-09T02:25:26.886Z,101428.91
2022-10-09T02:27:56.618Z,101425.56
2022-10-09T02:30:28.117Z,101431.97
2022-10-09T02:32:55.799Z,101432.81
2022-10-09T02:35:23.501Z,101425.09
2022-10-09T02:37:51.147Z,101433.06
2022-10-09T02:40:18.734Z,101422.03
2022-10-09T02:42:46.569Z,101426.63
2022-10-09T02:45:15.919Z,101431.94
2022-10-09T02:47:43.516Z,101436.28
2022-10-09T02:50:11.264Z,101422.03
2022-10-09T02:52:38.885Z,101432.06
2022-10-09T02:55:06.909Z,101425.91
2022-10-09T02:57:34.454Z,101423.50
2022-10-09T03:00:02.041Z,101433.16
2022-10-09T03:02:31.065Z,101427.72
2022-10-09T03:04:59.018Z,101431.34
2022-10-09T03:07:26.847Z,101425.19
2022-10-09T03:09:54.784Z,101429.09
2022-10-09T03:12:22.371Z,101423.03
2022-10-09T03:14:49.963Z,101424.00
2022-10-09T03:17:17.554Z,101423.69
2022-10-09T03:19:46.540Z,101426.47
2022-10-09T03:22:14.164Z,101418.97
2022-10-09T03:24:41.815Z,101422.59
2022-10-09T03:27:09.555Z,101422.59
2022-10-09T03:29:37.183Z,101430.94
2022-10-09T03:32:04.927Z,101427.44
2022-10-09T03:34:32.508Z,101426.47
2022-10-09T03:37:01.516Z,101432.94
2022-10-09T03:39:29.136Z,101413.66
2022-10-09T03:41:56.813Z,101422.31
2022-10-09T03:44:24.553Z,101421.34
2022-10-09T03:46:52.617Z,101422.84
2022-10-09T03:49:20.334Z,101425.09
2022-10-09T03:51:47.950Z,101429.38
2022-10-09T03:54:16.848Z,101431.78
2022-10-09T03:56:44.402Z,101425.63
2022-10-09T03:59:12.241Z,101430.09
2022-10-09T04:01:40.738Z,101427.56
2022-10-09T04:04:08.279Z,101432.03
2022-10-09T04:06:35.915Z,101428.88
2022-10-09T04:09:03.599Z,101427.50
2022-10-09T04:11:32.517Z,101426.44
2022-10-09T04:14:00.699Z,101432.94
2022-10-09T04:16:28.518Z,101429.97
2022-10-09T04:18:56.286Z,101427.53
2022-10-09T04:21:23.952Z,101432.41
2022-10-09T04:23:52.270Z,101423.59
2022-10-09T04:26:19.914Z,101424.75
2022-10-09T04:28:48.967Z,101431.19
2022-10-09T04:31:16.669Z,101425.03
2022-10-09T04:33:44.249Z,101421.13
2022-10-09T04:36:12.423Z,101422.22
2022-10-09T04:38:40.043Z,101430.66
2022-10-09T04:41:08.601Z,101422.69
2022-10-09T04:43:36.760Z,101425.59
2022-10-09T04:46:11.405Z,101427.09
2022-10-09T04:48:39.962Z,101419.19
2022-10-09T04:51:08.573Z,101419.91
2022-10-09T04:53:37.461Z,101416.03
2022-10-09T04:56:07.499Z,101415.69
2022-10-09T04:58:36.415Z,101406.75
2022-10-09T05:01:08.650Z,101408.44
2022-10-09T05:03:36.422Z,101409.53
2022-10-09T05:06:05.468Z,101410.91
2022-10-09T05:08:33.657Z,101400.28
2022-10-09T05:11:01.821Z,101408.84
2022-10-09T05:13:30.911Z,101410.06
2022-10-09T05:16:02.796Z,101416.09
2022-10-09T05:18:31.969Z,101414.28
2022-10-09T05:20:59.564Z,101419.91
2022-10-09T05:23:27.163Z,101416.53
2022-10-09T05:25:56.106Z,101420.69
2022-10-09T05:28:23.958Z,101425.66
2022-10-09T05:30:52.153Z,101422.63
2022-10-09T05:33:19.885Z,101423.47
2022-10-09T05:35:56.156Z,101428.28
2022-10-09T05:38:25.295Z,101424.69
2022-10-09T05:40:53.702Z,101430.66
2022-10-09T05:43:21.696Z,101423.47
2022-10-09T05:45:49.355Z,101426.25
2022-10-09T05:48:17.115Z,101434.31
2022-10-09T05:50:44.878Z,101427.84
2022-10-09T05:53:14.087Z,101423.28
2022-10-09T05:55:41.782Z,101421.94
2022-10-09T05:58:09.397Z,101422.91
2022-10-09T06:00:36.964Z,101425.44
2022-10-09T06:03:04.902Z,101422.88
2022-10-09T06:05:32.502Z,101423.97
2022-10-09T06:08:00.083Z,101421.06
2022-10-09T06:10:32.255Z,101426.97
2022-10-09T06:13:00.292Z,101421.38
2022-10-09T06:15:28.074Z,101428.50
2022-10-09T06:17:55.752Z,101431.03
2022-10-09T06:20:23.409Z,101434.09
2022-10-09T06:22:52.056Z,101431.16
2022-10-09T06:25:19.642Z,101425.97
2022-10-09T06:27:48.575Z,101426.56
2022-10-09T06:30:16.197Z,101431.69
2022-10-09T06:32:43.813Z,101433.63
2022-10-09T06:35:11.443Z,101439.38
2022-10-09T06:37:39.009Z,101432.75
2022-10-09T06:40:07.257Z,101431.38
2022-10-09T06:42:34.895Z,101430.00
2022-10-09T06:45:03.939Z,101442.31
2022-10-09T06:47:31.529Z,101435.31
2022-10-09T06:49:59.118Z,101431.19
2022-10-09T06:52:26.656Z,101430.41
2022-10-09T06:54:54.240Z,101429.69
2022-10-09T06:57:21.948Z,101441.41
2022-10-09T06:59:50.109Z,101439.59
2022-10-09T07:02:19.232Z,101433.88
2022-10-09T07:04:48.141Z,101431.91
2022-10-09T07:07:15.730Z,101437.91
2022-10-09T07:09:43.335Z,101440.00
2022-10-09T07:12:10.955Z,101446.34
2022-10-09T07:14:38.569Z,101442.97
2022-10-09T07:17:06.738Z,101435.25
2022-10-09T07:19:35.746Z,101443.81
2022-10-09T07:22:03.323Z,101441.84
2022-10-09T07:24:30.876Z,101445.34
2022-10-09T07:26:58.491Z,101436.56
2022-10-09T07:29:26.063Z,101437.28
2022-10-09T07:31:53.653Z,101435.44
2022-10-09T07:34:21.293Z,101438.41
2022-10-09T07:36:50.287Z,101438.69
2022-10-09T07:39:19.497Z,101442.69
2022-10-09T07:41:47.723Z,101428.72
2022-10-09T07:44:15.395Z,101440.38
2022-10-09T07:46:43.017Z,101427.34
2022-10-09T07:49:10.752Z,101421.47
2022-10-09T07:51:38.427Z,101426.94
2022-10-09T07:54:07.404Z,101425.72
2022-10-09T07:56:37.863Z,101417.31
2022-10-09T07:59:07.583Z,101424.75
2022-10-09T08:01:36.519Z,101421.53
2022-10-09T08:04:05.192Z,101419.28
2022-10-09T08:06:33.461Z,101420.69
2022-10-09T08:09:02.720Z,101426.44
2022-10-09T08:11:31.859Z,101427.00
2022-10-09T08:14:00.215Z,101423.78
2022-10-09T08:16:28.897Z,101424.22
2022-10-09T08:18:58.710Z,101413.69
2022-10-09T08:21:27.918Z,101428.00
2022-10-09T08:23:57.351Z,101416.25
2022-10-09T08:26:25.965Z,101416.66
2022-10-09T08:28:57.310Z,101419.03
2022-10-09T08:31:25.806Z,101409.31
2022-10-09T08:33:54.683Z,101407.16
2022-10-09T08:36:22.924Z,101408.38
2022-10-09T08:38:51.133Z,101415.13
2022-10-09T08:41:28.544Z,101409.22
2022-10-09T08:44:03.576Z,101404.38
2022-10-09T08:46:35.972Z,101402.00
2022-10-09T08:49:06.171Z,101407.97
2022-10-09T08:51:39.051Z,101404.88
2022-10-09T08:54:17.553Z,101388.63
2022-10-09T08:56:45.883Z,101385.53
2022-10-09T08:59:15.013Z,101382.88
2022-10-09T09:01:49.308Z,101379.03
2022-10-09T09:04:32.832Z,101377.72
2022-10-09T09:07:12.326Z,101373.75
2022-10-09T09:09:53.108Z,101384.69
2022-10-09T09:12:28.340Z,101380.97
2022-10-09T09:15:14.160Z,101370.28
2022-10-09T09:17:47.538Z,101375.63
2022-10-09T09:20:23.258Z,101372.34
2022-10-09T09:22:51.959Z,101360.47
2022-10-09T09:25:22.889Z,101367.31
2022-10-09T09:27:52.694Z,101366.91
2022-10-09T09:30:25.626Z,101361.56
2022-10-09T09:33:01.795Z,101361.25
2022-10-09T09:35:37.078Z,101350.63
2022-10-09T09:38:04.824Z,101338.13
2022-10-09T09:40:37.753Z,101341.13
2022-10-09T09:43:14.716Z,101339.41
2022-10-09T09:45:44.809Z,101331.81
2022-10-09T09:48:17.129Z,101331.50
2022-10-09T09:50:53.084Z,101322.44
2022-10-09T09:53:36.134Z,101321.47
2022-10-09T09:56:04.207Z,101326.00
2022-10-09T09:58:36.329Z,101323.50
2022-10-09T10:01:07.870Z,101320.53
2022-10-09T10:03:36.952Z,101315.91
2022-10-09T10:06:05.388Z,101314.59
2022-10-09T10:08:35.196Z,101312.25
2022-10-09T10:11:06.416Z,101312.38
2022-10-09T10:13:37.985Z,101300.81
2022-10-09T10:16:08.976Z,101299.84
2022-10-09T10:18:41.529Z,101293.97
2022-10-09T10:21:13.555Z,101289.78
2022-10-09T10:23:45.521Z,101290.63
2022-10-09T10:26:23.608Z,101282.53
2022-10-09T10:28:55.733Z,101279.41
2022-10-09T10:31:36.552Z,101275.00
2022-10-09T10:34:09.909Z,101264.81
2022-10-09T10:36:37.580Z,101257.72
2022-10-09T10:39:13.876Z,101256.22
2022-10-09T10:41:46.376Z,101250.44
2022-10-09T10:44:22.834Z,101252.19
2022-10-09T10:46:56.369Z,101243.75
2022-10-09T10:49:24.396Z,101241.53
2022-10-09T10:52:04.548Z,101241.31
2022-10-09T10:54:38.712Z,101238.97
2022-10-09T10:57:15.787Z,101224.28
2022-10-09T10:59:53.370Z,101227.06
2022-10-09T11:02:54.497Z,101227.06
2022-10-09T11:05:47.653Z,101220.34
2022-10-09T11:08:34.564Z,101218.84
2022-10-09T11:11:07.610Z,101217.81
2022-10-09T11:13:45.935Z,101207.72
2022-10-09T11:16:29.917Z,101203.66
2022-10-09T11:19:14.495Z,101190.34
2022-10-09T11:21:52.948Z,101194.28
2022-10-09T11:24:37.862Z,101196.25
2022-10-09T11:27:14.586Z,101189.81
2022-10-09T11:29:47.493Z,101179.13
2022-10-09T11:32:20.869Z,101175.47
2022-10-09T11:34:56.719Z,101176.38
2022-10-09T11:37:28.485Z,101185.16
2022-10-09T11:39:57.435Z,101173.59
2022-10-09T11:42:27.208Z,101164.03
2022-10-09T11:45:07.527Z,101162.66
2022-10-09T11:47:46.095Z,101149.22
2022-10-09T11:50:27.911Z,101150.19
2022-10-09T11:53:00.848Z,101160.06
2022-10-09T11:55:31.273Z,101146.34
2022-10-09T11:58:14.908Z,101137.22
2022-10-09T12:00:43.894Z,101141.81
2022-10-09T12:03:26.370Z,101132.16
2022-10-09T12:06:04.374Z,101122.63
2022-10-09T12:08:32.311Z,101117.28
2022-10-09T12:11:10.520Z,101120.66
2022-10-09T12:13:46.039Z,101120.88
2022-10-09T12:16:46.478Z,101107.78
2022-10-09T12:19:23.345Z,101098.97
2022-10-09T12:21:59.625Z,101096.56
2022-10-09T12:24:30.460Z,101094.72
2022-10-09T12:27:03.138Z,101091.47
2022-10-09T12:29:34.731Z,101090.59
2022-10-09T12:32:07.528Z,101081.34
2022-10-09T12:34:38.941Z,101066.44
2022-10-09T12:37:17.450Z,101064.03
2022-10-09T12:39:46.366Z,101062.88
2022-10-09T12:42:20.016Z,101067.25
2022-10-09T12:44:49.607Z,101063.72
2022-10-09T12:47:21.811Z,101055.81
2022-10-09T12:49:57.921Z,101053.31
2022-10-09T12:52:27.935Z,101053.50
2022-10-09T12:54:55.952Z,101043.75
2022-10-09T12:57:27.726Z,101042.66
2022-10-09T12:59:56.542Z,101039.28
2022-10-09T13:02:24.434Z,101041.94
2022-10-09T13:04:57.974Z,101028.22
2022-10-09T13:07:29.731Z,101025.25
2022-10-09T13:10:03.700Z,101020.63
2022-10-09T13:12:32.433Z,101022.66
2022-10-09T13:15:01.681Z,101019.56
2022-10-09T13:20:21.523Z,101003.03
2022-10-09T13:22:56.545Z,100998.84
2022-10-09T13:25:24.777Z,100988.81
2022-10-09T13:27:52.625Z,100992.78
2022-10-09T13:30:22.303Z,100988.78
2022-10-09T13:32:50.087Z,100983.56
2022-10-09T13:35:18.152Z,100988.94
2022-10-09T13:37:45.826Z,100979.00
2022-10-09T13:40:20.417Z,100985.59
2022-10-09T13:42:53.808Z,100974.59
2022-10-09T13:45:22.194Z,100978.50
2022-10-09T13:47:50.154Z,100975.38
2022-10-09T13:50:19.677Z,100968.34
2022-10-09T13:52:47.352Z,100962.75
2022-10-09T13:55:17.131Z,100954.22
2022-10-09T13:57:44.836Z,100963.50
2022-10-09T14:00:13.575Z,100960.41
2022-10-09T14:02:41.237Z,100957.09
2022-10-09T14:05:09.052Z,100956.22
2022-10-09T14:07:36.683Z,100949.59
2022-10-09T14:10:04.849Z,100953.25
2022-10-09T14:12:33.864Z,100943.94
2022-10-09T14:15:01.523Z,100943.09
2022-10-09T14:17:29.213Z,100940.47
2022-10-09T14:19:57.018Z,100943.56
2022-10-09T14:22:24.605Z,100927.50
2022-10-09T14:24:52.243Z,100931.41
2022-10-09T14:27:19.862Z,100920.84
2022-10-09T14:29:49.314Z,100914.91
2022-10-09T14:32:18.750Z,100907.41
2022-10-09T14:34:46.530Z,100913.19
2022-10-09T14:37:29.889Z,100906.50
2022-10-09T14:40:02.129Z,100904.84
2022-10-09T14:42:29.836Z,100911.25
2022-10-09T14:44:58.861Z,100906.66
2022-10-09T14:47:26.570Z,100918.25
2022-10-09T14:49:54.233Z,100903.44
2022-10-09T14:52:21.865Z,100899.88
2022-10-09T14:54:49.524Z,100892.59
2022-10-09T14:57:17.947Z,100892.53
2022-10-09T14:59:45.596Z,100894.97
2022-10-09T15:02:15.949Z,100881.47
2022-10-09T15:04:43.928Z,100881.63
2022-10-09T15:07:11.613Z,100883.19
2022-10-09T15:09:39.243Z,100873.22
2022-10-09T15:12:07.033Z,100876.28
2022-10-09T15:14:34.709Z,100870.69
2022-10-09T15:17:02.880Z,100868.19
2022-10-09T15:19:32.019Z,100866.06
2022-10-09T15:21:59.755Z,100858.59
2022-10-09T15:24:27.880Z,100850.91
2022-10-09T15:26:55.545Z,100863.44
2022-10-09T15:29:23.372Z,100856.75
2022-10-09T15:31:51.903Z,100850.94
2022-10-09T15:34:20.944Z,100853.72
2022-10-09T15:36:50.949Z,100853.25
2022-10-09T15:39:18.711Z,100847.28
2022-10-09T15:41:47.696Z,100838.38
2022-10-09T15:44:17.469Z,100841.63
2022-10-09T15:46:46.304Z,100837.84
2022-10-09T15:49:14.041Z,100836.38
2022-10-09T15:51:41.748Z,100832.84
2022-10-09T15:54:12.993Z,100828.25
2022-10-09T15:56:41.393Z,100826.34
2022-10-09T15:59:11.830Z,100822.53
2022-10-09T16:01:39.571Z,100821.25
2022-10-09T16:04:07.295Z,100819.31
2022-10-09T16:06:35.078Z,100819.06
2022-10-09T16:09:04.060Z,100807.22
2022-10-09T16:11:34.539Z,100812.13
2022-10-09T16:14:02.303Z,100810.19
2022-10-09T16:16:29.983Z,100816.75
2022-10-09T16:18:57.755Z,100808.41
2022-10-09T16:21:27.940Z,100807.16
2022-10-09T16:23:59.141Z,100809.31
2022-10-09T16:26:29.200Z,100814.06
2022-10-09T16:28:59.999Z,100808.41
2022-10-09T16:31:30.140Z,100801.75
2022-10-09T16:33:58.112Z,100811.34
2022-10-09T16:36:25.788Z,100803.88
2022-10-09T16:38:53.467Z,100805.25
2022-10-09T16:41:22.718Z,100812.00
2022-10-09T16:43:52.194Z,100811.72
2022-10-09T16:46:23.528Z,100809.41
2022-10-09T16:48:52.523Z,100808.09
2022-10-09T16:51:22.815Z,100808.19
2022-10-09T16:53:51.278Z,100807.91
2022-10-09T16:56:20.905Z,100809.28
2022-10-09T16:58:48.541Z,100801.81
2022-10-09T17:01:17.427Z,100809.34
2022-10-09T17:03:46.851Z,100805.34
2022-10-09T17:06:19.413Z,100803.06
2022-10-09T17:08:47.386Z,100798.22
2022-10-09T17:11:17.261Z,100795.09
2022-10-09T17:13:45.942Z,100797.13
2022-10-09T17:16:18.453Z,100798.47
2022-10-09T17:18:47.983Z,100802.53
2022-10-09T17:21:17.198Z,100803.56
2022-10-09T17:23:45.437Z,100797.72
2022-10-09T17:26:15.177Z,100803.91
2022-10-09T17:28:43.313Z,100804.41
2022-10-09T17:31:14.460Z,100800.25
2022-10-09T17:33:46.274Z,100802.25
2022-10-09T17:36:17.456Z,100807.63
2022-10-09T17:38:45.231Z,100800.59
2022-10-09T17:41:14.796Z,100802.63
2022-10-09T17:43:42.489Z,100809.00
2022-10-09T17:46:10.109Z,100807.50
2022-10-09T17:48:44.005Z,100807.03
2022-10-09T17:51:17.032Z,100804.53
2022-10-09T17:53:45.137Z,100807.41
2022-10-09T17:56:13.454Z,100802.03
2022-10-09T17:58:42.105Z,100798.88
2022-10-09T18:01:10.652Z,100799.03
2022-10-09T18:03:38.628Z,100801.25
2022-10-09T18:06:08.021Z,100802.16
2022-10-09T18:08:37.657Z,100798.16
2022-10-09T18:11:08.663Z,100794.84
2022-10-09T18:13:37.809Z,100795.22
2022-10-09T18:16:07.157Z,100795.22
2022-10-09T18:18:35.371Z,100791.22
2022-10-09T18:21:05.097Z,100795.91
2022-10-09T18:23:32.967Z,100788.25
2022-10-09T18:26:07.203Z,100787.59
2022-10-09T18:28:35.193Z,100792.28
2022-10-09T18:31:06.105Z,100787.47
2022-10-09T18:33:33.964Z,100790.97
2022-10-09T18:36:07.085Z,100791.63
2022-10-09T18:38:35.074Z,100787.47
2022-10-09T18:41:04.358Z,100786.97
2022-10-09T18:43:31.945Z,100789.34
2022-10-09T18:46:00.725Z,100783.50
2022-10-09T18:48:30.485Z,100784.03
2022-10-09T18:50:58.543Z,100778.88
2022-10-09T18:53:26.311Z,100783.72
2022-10-09T18:55:54.252Z,100779.06
2022-10-09T18:58:23.854Z,100785.25
2022-10-09T19:00:51.578Z,100779.53
2022-10-09T19:03:19.224Z,100775.06
2022-10-09T19:05:46.887Z,100771.91
2022-10-09T19:08:14.515Z,100770.88
2022-10-09T19:10:42.222Z,100767.22
2022-10-09T19:13:09.765Z,100768.41
2022-10-09T19:15:38.794Z,100765.41
2022-10-09T19:18:06.902Z,100767.59
2022-10-09T19:20:34.551Z,100766.94
2022-10-09T19:23:02.204Z,100761.75
2022-10-09T19:25:29.800Z,100767.53
2022-10-09T19:27:57.462Z,100757.03
2022-10-09T19:30:25.094Z,100751.19
2022-10-09T19:32:54.049Z,100752.72
2022-10-09T19:35:21.644Z,100752.56
2022-10-09T19:37:49.503Z,100748.56
2022-10-09T19:40:17.460Z,100747.56
2022-10-09T19:42:45.038Z,100739.06
2022-10-09T19:45:12.718Z,100741.75
2022-10-09T19:47:40.354Z,100739.44
2022-10-09T19:50:10.027Z,100738.59
2022-10-09T19:52:37.687Z,100739.78
2022-10-09T19:55:05.964Z,100739.47
2022-10-09T19:57:33.674Z,100736.94
2022-10-09T20:00:01.272Z,100736.44
2022-10-09T20:02:28.912Z,100735.78
2022-10-09T20:04:56.555Z,100738.47
2022-10-09T20:07:25.631Z,100739.16
2022-10-09T20:09:53.276Z,100731.63
2022-10-09T20:12:21.042Z,100746.13
2022-10-09T20:14:48.687Z,100739.50
2022-10-09T20:17:17.135Z,100742.97
2022-10-09T20:19:45.876Z,100741.34
2022-10-09T20:22:13.681Z,100741.84
2022-10-09T20:24:42.728Z,100741.34
2022-10-09T20:27:10.322Z,100738.34
2022-10-09T20:29:38.149Z,100739.50
2022-10-09T20:32:05.822Z,100740.03
2022-10-09T20:34:33.440Z,100738.69
2022-10-09T20:37:01.199Z,100738.03
2022-10-09T20:39:28.788Z,100737.53
2022-10-09T20:41:58.400Z,100733.53
2022-10-09T20:44:25.950Z,100741.88
2022-10-09T20:46:56.638Z,100728.31
2022-10-09T20:49:24.373Z,100734.47
2022-10-09T20:51:52.791Z,100738.50
2022-10-09T20:54:21.979Z,100737.34
2022-10-09T20:56:50.439Z,100735.47
2022-10-09T20:59:19.797Z,100739.13
2022-10-09T21:01:47.605Z,100734.47
2022-10-09T21:04:15.263Z,100730.13
2022-10-09T21:06:43.002Z,100739.47
2022-10-09T21:09:10.790Z,100733.78
2022-10-09T21:11:40.218Z,100734.13
2022-10-09T21:14:08.093Z,100727.63
2022-10-09T21:16:37.268Z,100728.44
2022-10-09T21:19:06.154Z,100729.78
2022-10-09T21:21:34.859Z,100735.13
2022-10-09T21:24:03.319Z,100728.59
2022-10-09T21:26:35.477Z,100726.75
2022-10-09T21:29:04.048Z,100727.13
2022-10-09T21:31:33.569Z,100725.91
2022-10-09T21:34:03.010Z,100722.41
2022-10-09T21:36:51.212Z,100726.91
2022-10-09T21:39:27.431Z,100720.25
2022-10-09T21:41:56.018Z,100727.09
2022-10-09T21:44:23.655Z,100721.91
2022-10-09T21:46:51.319Z,100721.53
2022-10-09T21:49:22.547Z,100727.19
2022-10-09T21:51:50.384Z,100726.00
2022-10-09T21:54:18.498Z,100727.00
2022-10-09T21:56:46.127Z,100729.34
2022-10-09T21:59:14.144Z,100718.72
2022-10-09T22:01:41.750Z,100724.69
2022-10-09T22:04:09.386Z,100726.50
2022-10-09T22:06:38.330Z,100724.63
2022-10-09T22:09:05.917Z,100726.63
2022-10-09T22:11:33.500Z,100725.25
2022-10-09T22:14:01.090Z,100723.94
2022-10-09T22:16:28.688Z,100717.59
2022-10-09T22:18:56.278Z,100717.59
2022-10-09T22:21:23.949Z,100715.72
2022-10-09T22:23:52.958Z,100712.88
2022-10-09T22:26:22.750Z,100721.34
2022-10-09T22:28:50.643Z,100718.84
2022-10-09T22:31:20.557Z,100714.13
2022-10-09T22:33:50.876Z,100709.75
2022-10-09T22:36:20.056Z,100710.41
2022-10-09T22:38:48.044Z,100715.06
2022-10-09T22:41:18.370Z,100708.38
2022-10-09T22:43:48.629Z,100715.06
2022-10-09T22:46:19.260Z,100716.41
2022-10-09T22:48:46.910Z,100705.91
2022-10-09T22:51:16.837Z,100707.53
2022-10-09T22:53:47.229Z,100707.34
2022-10-09T22:56:18.887Z,100710.69
2022-10-09T22:58:47.623Z,100699.50
2022-10-09T23:01:17.434Z,100702.53
2022-10-09T23:03:45.098Z,100709.38
2022-10-09T23:06:15.603Z,100698.72
2022-10-09T23:08:45.202Z,100694.38
2022-10-09T23:11:13.883Z,100695.31
2022-10-09T23:13:42.941Z,100695.66
2022-10-09T23:16:13.091Z,100693.16
2022-10-09T23:18:42.079Z,100692.63
2022-10-09T23:21:12.654Z,100686.47
2022-10-09T23:23:40.359Z,100694.28
2022-10-09T23:26:10.003Z,100684.28
2022-10-09T23:28:37.891Z,100689.91
2022-10-09T23:31:08.873Z,100684.91
2022-10-09T23:33:38.438Z,100686.50
2022-10-09T23:36:07.734Z,100696.69
2022-10-09T23:38:35.828Z,100684.69
2022-10-09T23:41:05.605Z,100685.00
2022-10-09T23:43:34.795Z,100683.00
2022-10-09T23:46:04.499Z,100678.16
2022-10-09T23:48:34.063Z,100686.78
2022-10-09T23:51:01.707Z,100682.81
2022-10-09T23:53:29.645Z,100680.84
2022-10-09T23:55:57.208Z,100669.66
2022-10-09T23:58:25.293Z,100681.13
